Time;durP1;ratioP1;P1;durP2;ratioP2;P2;SDS_P1;SDS_P2;PMS_P1;PMS_P2;Temp;Humidity;BMP_temperature;BMP_pressure;BME280_temperature;BME280_humidity;BME280_pressure;Samples;Min_cycle;Max_cycle;Signal;HPM_P1;HPM_P2
2023/06/28 00:01:50;;;;;;;10.75;3.72;;;15.50;99.90;;;;;;5053767;28;20392;-84
2023/06/28 00:04:16;;;;;;;11.57;4.32;;;15.40;99.90;;;;;;5048958;28;20522;-83
2023/06/28 00:06:42;;;;;;;10.18;3.60;;;15.40;99.90;;;;;;5064277;28;20082;-86
2023/06/28 00:09:07;;;;;;;10.45;3.42;;;16.60;99.90;;;;;;5044039;28;20036;-84
2023/06/28 00:11:33;;;;;;;10.02;4.07;;;15.30;99.90;;;;;;5052898;28;20044;-84
2023/06/28 00:13:59;;;;;;;8.68;3.03;;;15.40;99.90;;;;;;5059597;28;20040;-84
2023/06/28 00:16:24;;;;;;;10.93;2.92;;;15.30;99.90;;;;;;5081439;28;20040;-84
2023/06/28 00:18:50;;;;;;;11.18;3.72;;;15.40;99.90;;;;;;5061385;28;20052;-84
2023/06/28 00:21:16;;;;;;;8.63;3.65;;;16.90;99.90;;;;;;5036250;28;20043;-85
2023/06/28 00:23:42;;;;;;;7.57;3.35;;;15.40;99.90;;;;;;5078633;28;20040;-84
2023/06/28 00:26:08;;;;;;;9.55;3.63;;;15.40;99.90;;;;;;5042387;28;20090;-84
2023/06/28 00:28:34;;;;;;;7.30;3.33;;;15.40;99.90;;;;;;5069565;28;20033;-85
2023/06/28 00:31:00;;;;;;;14.93;3.78;;;15.40;99.90;;;;;;5071989;28;20048;-84
2023/06/28 00:33:25;;;;;;;6.78;3.60;;;15.40;99.90;;;;;;5077287;28;20043;-83
2023/06/28 00:35:51;;;;;;;6.07;3.33;;;15.40;99.90;;;;;;5055267;28;20044;-84
2023/06/28 00:38:17;;;;;;;6.75;3.42;;;16.90;99.90;;;;;;5056340;28;20131;-84
2023/06/28 00:40:42;;;;;;;9.85;3.25;;;15.40;99.90;;;;;;5035275;28;20525;-83
2023/06/28 00:43:08;;;;;;;8.77;3.38;;;15.40;99.90;;;;;;5050858;28;20403;-85
2023/06/28 00:45:34;;;;;;;7.75;3.42;;;15.40;99.90;;;;;;5078897;28;20124;-84
2023/06/28 00:48:00;;;;;;;5.03;2.50;;;15.40;99.90;;;;;;5068937;28;20044;-85
2023/06/28 00:50:28;;;;;;;7.55;3.35;;;15.30;99.90;;;;;;5059382;28;20052;-84
2023/06/28 00:52:54;;;;;;;7.80;3.40;;;15.30;99.90;;;;;;5078834;28;20045;-85
2023/06/28 00:55:21;;;;;;;8.30;3.00;;;15.30;99.90;;;;;;5051380;28;20506;-86
2023/06/28 00:57:46;;;;;;;8.02;3.50;;;15.30;99.90;;;;;;5070957;28;20041;-87
2023/06/28 01:00:13;;;;;;;5.72;3.25;;;15.30;99.90;;;;;;5068988;28;20036;-85
2023/06/28 01:02:44;;;;;;;6.93;3.38;;;15.30;99.90;;;;;;5047979;28;20474;-84
2023/06/28 01:05:13;;;;;;;9.90;4.10;;;15.30;99.90;;;;;;5054891;28;20056;-85
2023/06/28 01:07:40;;;;;;;9.80;3.97;;;15.30;99.90;;;;;;5073375;28;20039;-85
2023/06/28 01:10:08;;;;;;;10.10;3.67;;;15.30;99.90;;;;;;5073917;28;20043;-86
2023/06/28 01:12:35;;;;;;;11.82;4.07;;;15.20;99.90;;;;;;5071929;28;20372;-87
2023/06/28 01:15:01;;;;;;;11.48;4.07;;;15.20;99.90;;;;;;5072121;28;20109;-85
2023/06/28 01:17:27;;;;;;;9.43;3.40;;;15.30;99.90;;;;;;5071206;28;20035;-85
2023/06/28 01:19:54;;;;;;;6.32;3.28;;;15.30;99.90;;;;;;5074722;28;20036;-85
2023/06/28 01:22:20;;;;;;;10.02;3.72;;;15.20;99.90;;;;;;5068915;28;20499;-85
2023/06/28 01:24:46;;;;;;;8.60;3.58;;;15.30;99.90;;;;;;5067463;28;20040;-85
2023/06/28 01:27:13;;;;;;;6.63;3.78;;;15.20;99.90;;;;;;5067387;28;20072;-85
2023/06/28 01:29:40;;;;;;;5.65;3.15;;;15.20;99.90;;;;;;5051021;28;20048;-85
2023/06/28 01:32:06;;;;;;;11.98;4.13;;;15.20;99.90;;;;;;5065013;28;20071;-86
2023/06/28 01:34:32;;;;;;;9.13;3.38;;;15.20;99.90;;;;;;5074867;28;20040;-82
2023/06/28 01:37:01;;;;;;;8.25;3.22;;;15.60;99.90;;;;;;5072229;28;20523;-85
2023/06/28 01:39:29;;;;;;;6.35;3.45;;;15.30;99.90;;;;;;5052945;28;20066;-83
2023/06/28 01:41:56;;;;;;;10.27;3.97;;;15.10;99.90;;;;;;5072715;28;20032;-85
2023/06/28 01:44:22;;;;;;;8.18;3.88;;;15.20;99.90;;;;;;5067415;28;20052;-83
2023/06/28 01:46:49;;;;;;;6.05;3.20;;;15.20;99.90;;;;;;5057690;28;20064;-84
2023/06/28 01:49:15;;;;;;;9.20;4.13;;;15.10;99.90;;;;;;5054153;28;20033;-85
2023/06/28 01:51:41;;;;;;;8.80;3.28;;;15.10;99.90;;;;;;5071137;28;20556;-84
2023/06/28 01:54:09;;;;;;;9.65;3.70;;;15.10;99.90;;;;;;5075521;28;20032;-85
2023/06/28 01:56:35;;;;;;;7.47;3.92;;;15.10;99.90;;;;;;5068118;28;20082;-84
2023/06/28 01:59:00;;;;;;;9.32;3.67;;;16.70;99.90;;;;;;5067518;28;20072;-84
2023/06/28 02:01:26;;;;;;;7.88;3.92;;;15.10;99.90;;;;;;5054390;28;20419;-84
2023/06/28 02:03:52;;;;;;;11.20;3.55;;;15.70;99.90;;;;;;5074928;28;20470;-83
2023/06/28 02:06:19;;;;;;;6.85;3.53;;;15.40;99.90;;;;;;5078841;28;20148;-84
2023/06/28 02:08:45;;;;;;;11.00;3.33;;;15.00;99.90;;;;;;5077318;28;20043;-84
2023/06/28 02:11:10;;;;;;;8.48;3.70;;;15.00;99.90;;;;;;5070585;28;20073;-84
2023/06/28 02:13:40;;;;;;;6.32;3.70;;;15.90;99.90;;;;;;5065486;28;20660;-84
2023/06/28 02:16:05;;;;;;;7.72;4.00;;;15.10;99.90;;;;;;5080596;28;20041;-85
2023/06/28 02:18:31;;;;;;;9.43;3.75;;;15.10;99.90;;;;;;5070698;28;20045;-85
2023/06/28 02:20:57;;;;;;;10.50;4.50;;;15.10;99.90;;;;;;5072778;28;20076;-83
2023/06/28 02:23:22;;;;;;;9.45;3.92;;;15.90;99.90;;;;;;5064216;28;20029;-83
2023/06/28 02:25:48;;;;;;;10.95;4.57;;;15.10;99.90;;;;;;5064680;28;20079;-83
2023/06/28 02:28:14;;;;;;;9.05;4.82;;;15.00;99.90;;;;;;5048044;28;20048;-84
2023/06/28 02:30:39;;;;;;;10.00;4.20;;;15.00;99.90;;;;;;5067042;28;20505;-83
2023/06/28 02:33:05;;;;;;;12.15;4.85;;;15.00;99.90;;;;;;5059728;28;20522;-83
2023/06/28 02:35:31;;;;;;;6.63;4.13;;;15.00;99.90;;;;;;5043515;28;20072;-83
2023/06/28 02:37:57;;;;;;;10.77;5.15;;;15.00;99.90;;;;;;5040672;28;20414;-83
2023/06/28 02:40:24;;;;;;;8.40;4.45;;;15.00;99.90;;;;;;5059728;28;20051;-83
2023/06/28 02:42:50;;;;;;;10.90;4.45;;;14.90;99.90;;;;;;5050564;28;20068;-84
2023/06/28 02:45:16;;;;;;;8.85;5.00;;;15.00;99.90;;;;;;5061392;28;20479;-85
2023/06/28 02:47:41;;;;;;;13.77;4.93;;;15.00;99.90;;;;;;5057829;28;20033;-86
2023/06/28 02:50:07;;;;;;;13.63;4.38;;;15.00;99.90;;;;;;5059495;28;20038;-84
2023/06/28 02:52:33;;;;;;;8.85;4.32;;;14.90;99.90;;;;;;5055164;28;20044;-84
2023/06/28 02:54:59;;;;;;;9.77;4.55;;;14.90;99.90;;;;;;5058546;28;20053;-83
2023/06/28 02:57:25;;;;;;;13.75;5.40;;;14.90;99.90;;;;;;5058608;28;20179;-84
2023/06/28 02:59:51;;;;;;;10.98;5.13;;;15.00;99.90;;;;;;5057235;28;20033;-86
2023/06/28 03:02:17;;;;;;;12.27;5.20;;;14.90;99.90;;;;;;5030425;28;20475;-83
2023/06/28 03:04:42;;;;;;;13.85;5.40;;;15.00;99.90;;;;;;5060468;28;20113;-85
2023/06/28 03:07:18;;;;;;;8.93;4.65;;;14.90;99.90;;;;;;5059872;28;20040;-86
2023/06/28 03:09:44;;;;;;;7.72;4.65;;;16.10;99.90;;;;;;5047188;28;20535;-84
2023/06/28 03:12:10;;;;;;;8.27;4.82;;;14.10;99.90;;;;;;5072710;28;20045;-83
2023/06/28 03:14:36;;;;;;;11.63;5.72;;;14.90;99.90;;;;;;5070394;28;20695;-85
2023/06/28 03:17:01;;;;;;;11.68;4.72;;;14.80;99.90;;;;;;5072746;28;20036;-84
2023/06/28 03:19:27;;;;;;;7.45;5.60;;;14.80;99.90;;;;;;5077085;28;20037;-83
2023/06/28 03:21:53;;;;;;;10.50;5.95;;;14.80;99.90;;;;;;5069040;28;20036;-84
2023/06/28 03:24:18;;;;;;;17.20;6.30;;;14.70;99.90;;;;;;5073988;28;20040;-86
2023/06/28 03:26:44;;;;;;;12.95;5.72;;;14.70;99.90;;;;;;5062633;28;20403;-85
2023/06/28 03:29:10;;;;;;;10.75;6.28;;;14.70;99.90;;;;;;5055161;28;20117;-86
2023/06/28 03:31:35;;;;;;;7.43;5.93;;;14.70;99.90;;;;;;5071227;28;20175;-83
2023/06/28 03:34:01;;;;;;;11.80;6.13;;;14.70;99.90;;;;;;5071289;28;20103;-85
2023/06/28 03:36:31;;;;;;;12.35;5.30;;;14.60;99.90;;;;;;5063345;28;20048;-86
2023/06/28 03:38:59;;;;;;;7.68;5.93;;;15.00;99.90;;;;;;5075210;28;20051;-84
2023/06/28 03:41:27;;;;;;;11.25;5.25;;;14.50;99.90;;;;;;5059836;28;20038;-86
2023/06/28 03:43:53;;;;;;;9.88;5.50;;;14.60;99.90;;;;;;5078994;28;20040;-84
2023/06/28 03:46:18;;;;;;;9.57;5.00;;;14.60;99.90;;;;;;5074373;28;20667;-83
2023/06/28 03:48:44;;;;;;;10.73;5.88;;;15.30;99.90;;;;;;5072180;28;20040;-85
2023/06/28 03:51:09;;;;;;;15.40;6.03;;;14.70;99.90;;;;;;5088323;28;20072;-84
2023/06/28 03:53:35;;;;;;;9.95;5.82;;;15.20;99.90;;;;;;5091604;28;20032;-84
2023/06/28 03:56:01;;;;;;;10.07;5.10;;;14.70;99.90;;;;;;5076876;28;20041;-84
2023/06/28 03:58:53;;;;;;;12.35;5.35;;;14.80;99.90;;;;;;5079238;28;20089;-84
2023/06/28 04:01:19;;;;;;;9.70;5.07;;;14.80;99.90;;;;;;5066276;28;20048;-82
2023/06/28 04:03:45;;;;;;;10.90;5.80;;;14.80;99.90;;;;;;5061956;28;20048;-83
2023/06/28 04:06:10;;;;;;;9.60;5.18;;;14.80;99.90;;;;;;5065129;28;20044;-83
2023/06/28 04:08:36;;;;;;;7.95;4.35;;;14.80;99.90;;;;;;5062924;28;20500;-84
2023/06/28 04:11:01;;;;;;;10.77;4.47;;;14.80;99.90;;;;;;5062426;28;20033;-83
2023/06/28 04:13:28;;;;;;;7.97;5.28;;;14.90;99.90;;;;;;5062668;28;20404;-83
2023/06/28 04:15:54;;;;;;;6.57;5.15;;;14.90;99.90;;;;;;5064768;28;20068;-82
2023/06/28 04:18:20;;;;;;;10.38;5.15;;;14.90;99.90;;;;;;5061427;28;20126;-84
2023/06/28 04:20:45;;;;;;;8.60;4.65;;;15.50;99.90;;;;;;5059895;28;20087;-83
2023/06/28 04:23:12;;;;;;;8.70;4.60;;;15.00;99.90;;;;;;5062809;28;20593;-83
2023/06/28 04:25:38;;;;;;;6.60;4.05;;;15.00;99.90;;;;;;5063727;28;20053;-84
2023/06/28 04:28:04;;;;;;;11.70;4.68;;;15.60;99.90;;;;;;5061551;28;20372;-85
2023/06/28 04:30:31;;;;;;;12.73;4.68;;;15.00;99.90;;;;;;5050712;28;20052;-85
2023/06/28 04:32:57;;;;;;;5.00;4.40;;;15.30;99.90;;;;;;5068451;28;20063;-85
2023/06/28 04:35:22;;;;;;;10.32;4.70;;;15.00;99.90;;;;;;5070148;28;20032;-84
2023/06/28 04:37:50;;;;;;;4.78;4.00;;;15.00;99.90;;;;;;5078460;28;20044;-84
2023/06/28 04:40:17;;;;;;;10.15;5.95;;;15.10;99.90;;;;;;5066570;28;20051;-83
2023/06/28 04:42:42;;;;;;;17.67;11.38;;;15.10;99.90;;;;;;5071543;28;20040;-85
2023/06/28 04:45:11;;;;;;;5.18;4.53;;;15.10;99.90;;;;;;5068922;28;20098;-84
2023/06/28 04:47:38;;;;;;;6.97;4.47;;;15.10;99.90;;;;;;5076967;28;20052;-84
2023/06/28 04:50:04;;;;;;;7.82;4.60;;;15.00;99.90;;;;;;5065359;28;20040;-84
2023/06/28 04:52:29;;;;;;;11.82;4.55;;;15.10;99.90;;;;;;5066604;28;20071;-85
2023/06/28 04:54:55;;;;;;;6.55;4.22;;;15.10;99.90;;;;;;5063065;28;20070;-85
2023/06/28 04:57:21;;;;;;;5.10;4.07;;;15.10;99.90;;;;;;5060226;28;20114;-86
2023/06/28 04:59:47;;;;;;;7.80;4.03;;;15.10;99.90;;;;;;5062785;28;20127;-85
2023/06/28 05:02:14;;;;;;;10.10;4.20;;;15.10;99.90;;;;;;5058276;28;20094;-83
2023/06/28 05:04:40;;;;;;;7.72;3.83;;;15.20;99.90;;;;;;5052447;28;20047;-84
2023/06/28 05:07:09;;;;;;;7.60;4.38;;;15.20;99.90;;;;;;5051937;28;20063;-85
2023/06/28 05:09:36;;;;;;;6.18;4.35;;;15.10;99.90;;;;;;5051001;28;20063;-85
2023/06/28 05:12:03;;;;;;;8.63;4.18;;;15.10;99.90;;;;;;5051664;28;20094;-85
2023/06/28 05:14:30;;;;;;;10.25;4.47;;;15.20;99.90;;;;;;5058333;28;20044;-85
2023/06/28 05:16:56;;;;;;;8.73;4.80;;;15.10;99.90;;;;;;5067985;28;20036;-85
2023/06/28 05:19:23;;;;;;;6.20;3.83;;;15.30;99.90;;;;;;5072516;28;20044;-84
2023/06/28 05:21:49;;;;;;;7.72;4.68;;;15.10;99.90;;;;;;5051905;28;20047;-85
2023/06/28 05:24:16;;;;;;;5.50;3.65;;;15.30;99.90;;;;;;5069317;28;20039;-84
2023/06/28 05:26:42;;;;;;;10.85;4.38;;;15.20;99.90;;;;;;5067422;28;20041;-84
2023/06/28 05:29:08;;;;;;;9.30;4.22;;;15.10;99.90;;;;;;5057304;28;20488;-85
2023/06/28 05:31:36;;;;;;;9.40;4.68;;;15.10;99.90;;;;;;5083247;28;20073;-85
2023/06/28 05:34:02;;;;;;;6.80;4.40;;;15.20;99.90;;;;;;5056105;28;20095;-84
2023/06/28 05:36:28;;;;;;;5.82;4.10;;;15.20;99.90;;;;;;5047444;28;20501;-85
2023/06/28 05:38:55;;;;;;;4.93;3.72;;;15.20;99.90;;;;;;5065430;28;20411;-84
2023/06/28 05:41:21;;;;;;;5.18;3.85;;;15.20;99.90;;;;;;5067646;28;20040;-83
2023/06/28 05:43:47;;;;;;;6.55;3.58;;;15.20;99.90;;;;;;5073542;28;20058;-84
2023/06/28 05:46:13;;;;;;;5.18;4.07;;;15.30;99.90;;;;;;5069828;28;20044;-85
2023/06/28 05:48:38;;;;;;;8.00;3.83;;;15.30;99.90;;;;;;5075561;28;20073;-85
2023/06/28 05:51:12;;;;;;;7.40;4.10;;;15.30;99.90;;;;;;5066731;28;20032;-84
2023/06/28 05:53:41;;;;;;;13.25;4.72;;;15.30;99.90;;;;;;5068843;28;20056;-84
2023/06/28 05:56:07;;;;;;;10.07;4.43;;;15.40;99.90;;;;;;5048799;28;20050;-84
2023/06/28 05:58:33;;;;;;;8.63;3.65;;;14.40;99.90;;;;;;5068212;28;20466;-86
2023/06/28 06:01:00;;;;;;;9.70;4.18;;;16.70;99.90;;;;;;5061639;28;20024;-84
2023/06/28 06:03:26;;;;;;;6.18;3.63;;;15.40;99.90;;;;;;5062993;28;20052;-84
2023/06/28 06:05:53;;;;;;;7.03;4.03;;;15.80;99.90;;;;;;5061416;28;20123;-86
2023/06/28 06:08:19;;;;;;;6.43;4.35;;;15.40;99.90;;;;;;5062676;28;20048;-84
2023/06/28 06:10:45;;;;;;;7.63;4.15;;;15.40;99.90;;;;;;5067221;28;20051;-85
2023/06/28 06:13:11;;;;;;;7.78;4.30;;;15.40;99.90;;;;;;5045993;28;20043;-84
2023/06/28 06:15:38;;;;;;;6.55;4.47;;;15.40;99.90;;;;;;5070995;28;20427;-84
2023/06/28 06:18:03;;;;;;;8.25;3.83;;;15.50;99.90;;;;;;5069741;28;20467;-84
2023/06/28 06:20:31;;;;;;;8.75;4.38;;;15.50;99.90;;;;;;5065497;28;20131;-83
2023/06/28 06:22:56;;;;;;;9.05;5.65;;;15.50;99.90;;;;;;5066331;28;20041;-84
2023/06/28 06:25:22;;;;;;;10.00;5.18;;;15.50;99.90;;;;;;5062382;28;20372;-84
2023/06/28 06:27:47;;;;;;;10.38;5.65;;;16.30;99.90;;;;;;5069024;28;20048;-79
2023/06/28 06:30:13;;;;;;;12.57;6.05;;;15.50;99.90;;;;;;5040893;28;20045;-79
2023/06/28 06:32:39;;;;;;;10.23;5.95;;;15.50;99.90;;;;;;5068900;28;20123;-79
2023/06/28 06:35:06;;;;;;;10.05;5.45;;;15.50;99.90;;;;;;4364861;28;10000714;-80
2023/06/28 06:37:32;;;;;;;10.60;5.53;;;15.50;99.90;;;;;;5048991;28;20053;-79
2023/06/28 06:39:58;;;;;;;10.85;6.30;;;15.50;99.90;;;;;;5048748;28;20135;-80
2023/06/28 06:42:24;;;;;;;10.80;6.18;;;15.50;99.90;;;;;;5043844;28;20139;-79
2023/06/28 06:44:49;;;;;;;14.60;6.07;;;15.40;99.90;;;;;;5046745;28;20369;-80
2023/06/28 06:47:15;;;;;;;12.05;6.20;;;15.60;99.90;;;;;;5046942;28;20542;-79
2023/06/28 06:49:40;;;;;;;11.15;6.00;;;15.30;99.90;;;;;;5048095;28;20480;-79
2023/06/28 06:52:06;;;;;;;9.32;5.20;;;15.30;99.90;;;;;;5051249;28;20052;-80
2023/06/28 06:54:32;;;;;;;11.80;6.82;;;15.30;99.90;;;;;;5054931;28;20040;-80
2023/06/28 06:56:58;;;;;;;12.55;5.88;;;15.40;99.90;;;;;;5034899;28;20025;-80
2023/06/28 06:59:24;;;;;;;8.30;5.68;;;15.40;99.90;;;;;;5040393;28;20320;-79
2023/06/28 07:01:53;;;;;;;14.98;6.38;;;15.40;99.90;;;;;;5051899;28;20550;-78
2023/06/28 07:04:21;;;;;;;16.95;6.97;;;15.50;99.90;;;;;;5047041;28;20228;-78
2023/06/28 07:06:47;;;;;;;15.57;7.07;;;15.40;99.90;;;;;;5055065;28;20138;-78
2023/06/28 07:09:17;;;;;;;13.05;6.63;;;15.40;99.90;;;;;;5058729;28;20044;-79
2023/06/28 07:11:44;;;;;;;13.85;6.47;;;15.70;99.90;;;;;;5050919;28;20076;-77
2023/06/28 07:14:10;;;;;;;12.23;6.75;;;15.40;99.90;;;;;;5033839;28;20055;-78
2023/06/28 07:16:36;;;;;;;14.20;6.57;;;15.40;99.90;;;;;;5050486;28;20597;-78
2023/06/28 07:19:02;;;;;;;14.57;7.80;;;15.50;99.90;;;;;;5047928;28;20033;-77
2023/06/28 07:21:28;;;;;;;11.20;6.38;;;15.50;99.90;;;;;;5054302;28;20068;-76
2023/06/28 07:23:55;;;;;;;10.07;6.38;;;15.50;99.90;;;;;;5059538;28;20124;-76
2023/06/28 07:26:21;;;;;;;11.68;6.55;;;15.60;99.90;;;;;;5050092;28;20424;-77
2023/06/28 07:28:47;;;;;;;11.35;6.20;;;15.60;99.90;;;;;;5055623;28;20048;-77
2023/06/28 07:31:13;;;;;;;11.85;7.00;;;15.60;99.90;;;;;;5046017;28;20048;-77
2023/06/28 07:33:40;;;;;;;9.77;6.90;;;15.70;99.90;;;;;;5049214;28;20159;-78
2023/06/28 07:36:06;;;;;;;11.55;6.80;;;16.60;99.90;;;;;;5028849;28;20048;-78
2023/06/28 07:38:32;;;;;;;9.35;6.13;;;15.60;99.90;;;;;;5052321;28;20127;-77
2023/06/28 07:40:57;;;;;;;14.63;6.85;;;15.70;99.90;;;;;;5049939;28;20123;-76
2023/06/28 07:43:23;;;;;;;10.75;6.03;;;15.70;99.90;;;;;;5046650;28;20038;-77
2023/06/28 07:45:49;;;;;;;9.50;6.45;;;15.70;99.90;;;;;;5030388;28;20049;-77
2023/06/28 07:48:15;;;;;;;9.57;6.03;;;15.80;99.90;;;;;;5045393;28;20052;-76
2023/06/28 07:50:41;;;;;;;11.95;6.45;;;15.80;99.90;;;;;;5051576;28;20053;-75
2023/06/28 07:53:07;;;;;;;13.70;7.60;;;15.70;99.90;;;;;;5050445;28;20053;-75
2023/06/28 07:55:33;;;;;;;14.48;6.20;;;15.80;99.90;;;;;;5055624;28;20036;-75
2023/06/28 07:57:59;;;;;;;11.52;6.95;;;15.80;99.90;;;;;;5029450;28;20081;-78
2023/06/28 08:00:25;;;;;;;10.48;6.53;;;15.80;99.90;;;;;;5044184;28;20487;-80
2023/06/28 08:02:51;;;;;;;14.63;6.43;;;15.80;99.90;;;;;;5049585;28;20045;-81
2023/06/28 08:05:17;;;;;;;13.27;6.60;;;15.80;99.90;;;;;;5049194;28;20056;-80
2023/06/28 08:07:43;;;;;;;7.93;5.80;;;15.90;99.90;;;;;;5059752;28;20072;-80
2023/06/28 08:10:09;;;;;;;11.98;6.85;;;16.50;99.90;;;;;;5059323;28;20072;-80
2023/06/28 08:12:34;;;;;;;13.57;6.82;;;15.90;99.90;;;;;;5030309;28;20041;-80
2023/06/28 08:15:00;;;;;;;13.98;7.25;;;15.90;99.90;;;;;;5050650;28;20163;-81
2023/06/28 08:17:26;;;;;;;13.80;7.25;;;15.90;99.90;;;;;;5050845;28;20598;-80
2023/06/28 08:19:54;;;;;;;11.13;6.18;;;15.90;99.90;;;;;;5057059;28;20048;-80
2023/06/28 08:22:19;;;;;;;10.95;7.63;;;15.90;99.90;;;;;;5049900;28;20497;-81
2023/06/28 08:24:45;;;;;;;11.52;7.03;;;16.60;99.90;;;;;;5056407;28;20519;-81
2023/06/28 08:27:11;;;;;;;13.88;7.22;;;15.90;99.90;;;;;;5050187;28;20044;-81
2023/06/28 08:29:40;;;;;;;14.88;6.90;;;15.90;99.90;;;;;;5031540;28;20044;-81
2023/06/28 08:32:06;;;;;;;11.82;7.57;;;15.90;99.90;;;;;;5048928;28;20102;-81
2023/06/28 08:34:31;;;;;;;10.85;6.60;;;15.90;99.90;;;;;;5047900;28;20399;-81
2023/06/28 08:36:57;;;;;;;13.68;7.38;;;16.00;99.90;;;;;;5060843;28;20613;-81
2023/06/28 08:39:22;;;;;;;10.13;7.05;;;16.00;99.90;;;;;;5033768;28;20040;-80
2023/06/28 08:41:50;;;;;;;12.90;7.03;;;16.20;99.90;;;;;;5068600;28;20025;-80
2023/06/28 08:44:20;;;;;;;10.65;6.38;;;16.00;99.90;;;;;;5051840;28;20127;-82
2023/06/28 08:46:48;;;;;;;14.55;7.43;;;16.00;99.90;;;;;;5057141;28;20036;-84
2023/06/28 08:49:15;;;;;;;17.30;7.88;;;16.10;99.90;;;;;;5076317;28;20043;-78
2023/06/28 08:51:41;;;;;;;10.05;7.45;;;16.60;99.90;;;;;;5053559;28;20063;-81
2023/06/28 08:54:12;;;;;;;9.38;7.05;;;16.10;99.90;;;;;;5068621;28;20047;-80
2023/06/28 08:56:39;;;;;;;12.43;8.32;;;16.20;99.90;;;;;;5068224;28;20054;-81
2023/06/28 08:59:05;;;;;;;13.63;8.13;;;16.20;99.90;;;;;;5071539;28;20147;-82
2023/06/28 09:01:32;;;;;;;12.65;8.45;;;16.10;99.90;;;;;;5069955;28;20037;-81
2023/06/28 09:03:59;;;;;;;12.65;8.25;;;16.10;99.90;;;;;;4367618;28;10000954;-81
2023/06/28 09:06:30;;;;;;;11.40;8.30;;;16.10;99.90;;;;;;5066869;28;20043;-81
2023/06/28 09:08:56;;;;;;;14.70;9.10;;;16.20;99.90;;;;;;5066774;28;20530;-81
2023/06/28 09:11:22;;;;;;;11.10;7.60;;;16.20;99.90;;;;;;5065137;28;20040;-82
2023/06/28 09:13:48;;;;;;;15.95;8.65;;;17.00;99.90;;;;;;5068867;28;20048;-81
2023/06/28 09:16:14;;;;;;;13.23;8.48;;;16.20;99.90;;;;;;5063830;28;20044;-81
2023/06/28 09:18:40;;;;;;;13.95;8.85;;;17.30;99.90;;;;;;5069603;28;20049;-82
2023/06/28 09:21:06;;;;;;;15.88;9.60;;;16.20;99.90;;;;;;5065522;28;20036;-81
2023/06/28 09:23:33;;;;;;;12.57;8.52;;;16.30;99.90;;;;;;5066050;28;20453;-82
2023/06/28 09:25:59;;;;;;;15.02;9.20;;;16.30;99.90;;;;;;5062218;28;20081;-82
2023/06/28 09:28:35;;;;;;;17.30;9.52;;;17.30;99.90;;;;;;5066052;28;20109;-81
2023/06/28 09:31:05;;;;;;;17.52;10.13;;;16.30;99.90;;;;;;5065281;28;20059;-81
2023/06/28 09:33:31;;;;;;;19.90;9.85;;;16.40;99.90;;;;;;5062342;28;20097;-81
2023/06/28 09:35:58;;;;;;;19.05;11.52;;;16.30;99.90;;;;;;5062527;28;20086;-82
2023/06/28 09:38:27;;;;;;;16.23;10.32;;;17.10;99.90;;;;;;5071434;28;20452;-81
2023/06/28 09:41:02;;;;;;;14.88;10.25;;;16.30;99.90;;;;;;5062699;28;20028;-80
2023/06/28 09:43:33;;;;;;;12.50;9.57;;;17.40;99.90;;;;;;5065163;28;20049;-83
2023/06/28 09:46:13;;;;;;;18.20;10.55;;;17.40;99.90;;;;;;5067181;28;20119;-81
2023/06/28 09:48:48;;;;;;;16.85;9.68;;;16.30;99.90;;;;;;5068559;28;20090;-81
2023/06/28 09:51:18;;;;;;;13.27;10.30;;;17.40;99.90;;;;;;5061553;28;20380;-82
2023/06/28 09:53:56;;;;;;;13.57;10.85;;;16.40;99.90;;;;;;5065130;28;20036;-82
2023/06/28 09:56:35;;;;;;;17.20;11.32;;;16.30;99.90;;;;;;5064911;28;20037;-82
2023/06/28 09:59:05;;;;;;;14.55;11.45;;;16.40;99.90;;;;;;5062637;28;20048;-83
2023/06/28 10:01:32;;;;;;;14.82;11.18;;;16.40;99.90;;;;;;5063567;28;20076;-83
2023/06/28 10:03:59;;;;;;;12.85;10.32;;;16.40;99.90;;;;;;5075127;28;20052;-82
2023/06/28 10:06:26;;;;;;;14.50;10.55;;;16.40;99.90;;;;;;5058516;28;20093;-83
2023/06/28 10:08:52;;;;;;;16.45;11.68;;;16.50;99.90;;;;;;5055095;28;20048;-78
2023/06/28 10:11:18;;;;;;;15.77;10.63;;;16.50;99.90;;;;;;5076037;28;20044;-80
2023/06/28 10:13:48;;;;;;;12.48;9.93;;;16.90;99.90;;;;;;5065328;28;20391;-83
2023/06/28 10:16:16;;;;;;;11.32;9.05;;;16.50;99.90;;;;;;5059093;28;20037;-82
2023/06/28 10:18:43;;;;;;;15.57;10.75;;;16.50;99.90;;;;;;5051659;28;20101;-87
2023/06/28 10:21:09;;;;;;;15.05;10.80;;;16.70;99.90;;;;;;5070833;28;20554;-85
2023/06/28 10:23:39;;;;;;;13.70;9.80;;;16.60;99.90;;;;;;5075413;28;20474;-84
2023/06/28 10:26:05;;;;;;;15.20;11.00;;;16.60;99.90;;;;;;5070226;28;20044;-87
2023/06/28 10:28:35;;;;;;;15.63;11.00;;;16.60;99.90;;;;;;5067819;28;20139;-87
2023/06/28 10:31:05;;;;;;;12.63;10.95;;;16.60;99.90;;;;;;5073259;28;20037;-89
2023/06/28 10:33:32;;;;;;;16.83;11.98;;;17.60;99.90;;;;;;5068548;28;20044;-85
2023/06/28 10:36:01;;;;;;;16.15;10.95;;;16.60;99.90;;;;;;5068668;28;20436;-84
2023/06/28 10:38:31;;;;;;;13.23;10.88;;;16.70;99.90;;;;;;5075248;28;20124;-88
2023/06/28 10:40:57;;;;;;;15.32;11.75;;;16.80;99.90;;;;;;5075896;28;20044;-79
2023/06/28 10:43:25;;;;;;;15.52;11.77;;;16.70;99.90;;;;;;5077189;28;20404;-85
2023/06/28 10:45:52;;;;;;;14.65;11.30;;;17.90;99.90;;;;;;5089003;28;20040;-88
2023/06/28 10:48:19;;;;;;;17.23;11.90;;;17.90;99.90;;;;;;5080127;28;20071;-91
2023/06/28 10:50:47;;;;;;;18.10;11.73;;;16.70;99.90;;;;;;5080595;28;20037;-83
2023/06/28 10:53:25;;;;;;;14.73;11.48;;;17.70;99.90;;;;;;5080636;28;20495;-79
2023/06/28 10:56:11;;;;;;;15.57;11.45;;;16.70;99.90;;;;;;5070819;28;20111;-79
2023/06/28 10:58:43;;;;;;;16.13;12.13;;;16.70;99.90;;;;;;5066819;28;20040;-83
2023/06/28 11:01:11;;;;;;;17.25;12.57;;;16.50;99.90;;;;;;5065323;28;20060;-86
2023/06/28 11:03:42;;;;;;;13.85;12.18;;;16.70;99.90;;;;;;5063875;28;20492;-85
2023/06/28 11:06:12;;;;;;;15.30;12.07;;;16.80;99.90;;;;;;5065635;28;20506;-77
2023/06/28 11:08:42;;;;;;;14.15;12.30;;;16.80;99.90;;;;;;5065545;28;20077;-78
2023/06/28 11:11:10;;;;;;;16.02;11.68;;;16.70;99.90;;;;;;5065294;28;20040;-78
2023/06/28 11:13:39;;;;;;;12.50;11.25;;;16.70;99.90;;;;;;5037394;28;20528;-79
2023/06/28 11:16:10;;;;;;;15.68;12.57;;;16.80;99.90;;;;;;5070323;28;20044;-78
2023/06/28 11:18:36;;;;;;;17.90;11.57;;;16.80;99.90;;;;;;5068498;28;20044;-77
2023/06/28 11:21:02;;;;;;;15.32;11.63;;;16.80;99.90;;;;;;5063460;28;20405;-79
2023/06/28 11:23:28;;;;;;;15.20;12.02;;;16.90;99.90;;;;;;5065729;28;20037;-82
2023/06/28 11:25:59;;;;;;;15.43;11.65;;;16.80;99.90;;;;;;5067911;28;20036;-78
2023/06/28 11:28:29;;;;;;;16.70;12.43;;;16.90;99.90;;;;;;5073809;28;20119;-82
2023/06/28 11:30:55;;;;;;;15.32;12.38;;;18.00;99.90;;;;;;5064477;28;20171;-78
2023/06/28 11:33:23;;;;;;;17.20;12.23;;;16.90;99.90;;;;;;5048149;28;20041;-78
2023/06/28 11:35:52;;;;;;;15.70;13.48;;;16.90;99.90;;;;;;5072983;28;20141;-78
2023/06/28 11:38:19;;;;;;;14.82;12.27;;;17.00;99.90;;;;;;5071143;28;20495;-76
2023/06/28 11:40:46;;;;;;;14.98;13.40;;;16.90;99.90;;;;;;5073296;28;20456;-78
2023/06/28 11:43:12;;;;;;;14.93;12.98;;;16.90;99.90;;;;;;5082809;28;20036;-76
2023/06/28 11:45:37;;;;;;;16.13;13.48;;;17.00;99.90;;;;;;5075602;28;20119;-90
2023/06/28 11:48:04;;;;;;;17.05;14.48;;;17.00;99.90;;;;;;5070090;28;20043;-89
2023/06/28 11:50:30;;;;;;;22.65;17.00;;;17.00;99.90;;;;;;5074871;28;20447;-88
2023/06/28 11:52:55;;;;;;;17.02;14.60;;;17.00;99.90;;;;;;5070961;28;20091;-87
2023/06/28 11:55:21;;;;;;;16.88;14.38;;;17.00;99.90;;;;;;5078549;28;20399;-93
2023/06/28 11:57:48;;;;;;;16.98;14.25;;;17.20;99.90;;;;;;5081006;28;20473;-80
2023/06/28 12:00:15;;;;;;;17.25;14.48;;;17.00;99.90;;;;;;5083702;28;20119;-81
2023/06/28 12:02:51;;;;;;;16.77;15.07;;;17.00;99.90;;;;;;5078613;28;20055;-81
2023/06/28 12:05:18;;;;;;;19.23;16.40;;;17.00;99.90;;;;;;5079192;28;20052;-84
2023/06/28 12:07:47;;;;;;;19.90;16.02;;;17.10;99.90;;;;;;5080357;28;20076;-76
2023/06/28 12:10:14;;;;;;;18.48;16.48;;;17.00;99.90;;;;;;5073502;28;20032;-82
2023/06/28 12:12:41;;;;;;;20.23;16.77;;;17.00;99.90;;;;;;5078505;28;20048;-80
2023/06/28 12:15:12;;;;;;;22.33;18.98;;;17.00;99.90;;;;;;5079587;28;20086;-79
2023/06/28 12:17:42;;;;;;;25.48;19.73;;;17.10;99.90;;;;;;5078046;28;20048;-83
2023/06/28 12:20:09;;;;;;;22.38;18.00;;;17.10;99.90;;;;;;5081683;28;20092;-81
2023/06/28 12:22:43;;;;;;;19.98;16.85;;;17.10;99.90;;;;;;5070896;28;20036;-83
2023/06/28 12:25:09;;;;;;;;;;;17.20;99.90;;;;;;5072596;28;20064;-82
2023/06/28 12:27:36;;;;;;;22.00;19.08;;;17.10;99.90;;;;;;5067316;28;20391;-81
2023/06/28 12:30:12;;;;;;;22.27;19.95;;;17.20;99.90;;;;;;5071953;28;20487;-79
2023/06/28 12:32:47;;;;;;;21.95;18.70;;;17.20;99.90;;;;;;5067335;28;20483;-77
2023/06/28 12:35:24;;;;;;;28.20;21.13;;;17.20;99.90;;;;;;5068835;28;20041;-79
2023/06/28 12:37:54;;;;;;;26.55;22.48;;;17.20;99.90;;;;;;5068718;28;20577;-76